createdAt,value
2022-10-12T00:01:12.400Z,10.03
2022-10-12T00:03:41.286Z,9.99
2022-10-12T00:06:11.719Z,9.97
2022-10-12T00:08:41.700Z,9.92
2022-10-12T00:11:15.099Z,9.92
2022-10-12T00:13:43.845Z,9.89
2022-10-12T00:16:14.044Z,9.89
2022-10-12T00:18:42.603Z,9.81
2022-10-12T00:21:13.749Z,9.73
2022-10-12T00:23:43.082Z,9.74
2022-10-12T00:26:15.909Z,9.69
2022-10-12T00:28:44.855Z,9.66
2022-10-12T00:31:16.329Z,9.72
2022-10-12T00:33:45.019Z,9.69
2022-10-12T00:36:16.423Z,9.63
2022-10-12T00:38:45.166Z,9.64
2022-10-12T00:41:16.400Z,9.60
2022-10-12T00:43:46.235Z,9.59
2022-10-12T00:46:20.442Z,9.60
2022-10-12T00:48:52.308Z,9.57
2022-10-12T00:51:23.048Z,9.55
2022-10-12T00:53:58.583Z,9.57
2022-10-12T00:56:31.924Z,9.54
2022-10-12T00:59:04.153Z,9.53
2022-10-12T01:01:36.026Z,9.54
2022-10-12T01:04:05.120Z,9.57
2022-10-12T01:06:34.626Z,9.56
2022-10-12T01:09:03.940Z,9.58
2022-10-12T01:11:33.761Z,9.57
2022-10-12T01:14:02.373Z,9.57
2022-10-12T01:16:39.122Z,9.52
2022-10-12T01:19:21.403Z,9.48
2022-10-12T01:21:56.566Z,9.45
2022-10-12T01:24:45.477Z,9.40
2022-10-12T01:27:35.097Z,9.41
2022-10-12T01:30:13.424Z,9.39
2022-10-12T01:33:03.367Z,9.34
2022-10-12T01:35:39.313Z,9.26
2022-10-12T01:38:19.453Z,9.23
2022-10-12T01:40:53.263Z,9.23
2022-10-12T01:43:23.834Z,9.17
2022-10-12T01:45:53.714Z,9.08
2022-10-12T01:48:22.001Z,9.04
2022-10-12T01:50:52.026Z,8.98
2022-10-12T01:53:29.853Z,8.85
2022-10-12T01:56:08.750Z,8.85
2022-10-12T01:58:56.164Z,8.81
2022-10-12T02:01:35.253Z,8.80
2022-10-12T02:04:09.921Z,8.74
2022-10-12T02:06:41.694Z,8.68
2022-10-12T02:09:20.307Z,8.66
2022-10-12T02:11:51.740Z,8.60
2022-10-12T02:14:24.260Z,8.59
2022-10-12T02:16:57.623Z,8.46
2022-10-12T02:19:29.765Z,8.51
2022-10-12T02:22:02.472Z,8.48
2022-10-12T02:24:33.110Z,8.43
2022-10-12T02:27:02.717Z,8.37
2022-10-12T02:29:34.988Z,8.34
2022-10-12T02:32:10.787Z,8.35
2022-10-12T02:34:45.653Z,8.29
2022-10-12T02:37:21.529Z,8.27
2022-10-12T02:39:54.628Z,8.23
2022-10-12T02:42:28.500Z,8.19
2022-10-12T02:45:02.148Z,8.20
2022-10-12T02:47:35.021Z,8.24
2022-10-12T02:50:04.844Z,8.15
2022-10-12T02:52:34.550Z,8.11
2022-10-12T02:55:02.933Z,8.09
2022-10-12T02:57:31.312Z,8.02
2022-10-12T02:59:59.473Z,8.02
2022-10-12T03:02:27.572Z,8.01
2022-10-12T03:04:57.499Z,7.98
2022-10-12T03:07:26.193Z,7.94
2022-10-12T03:09:54.577Z,7.96
2022-10-12T03:12:23.265Z,8.12
2022-10-12T03:14:51.615Z,8.14
2022-10-12T03:17:20.027Z,8.09
2022-10-12T03:19:48.510Z,8.07
2022-10-12T03:22:18.338Z,8.01
2022-10-12T03:24:46.610Z,8.07
2022-10-12T03:27:15.097Z,7.98
2022-10-12T03:29:43.372Z,7.98
2022-10-12T03:32:12.758Z,7.93
2022-10-12T03:34:41.051Z,7.87
2022-10-12T03:37:09.449Z,7.88
2022-10-12T03:39:39.394Z,7.86
2022-10-12T03:42:07.753Z,7.84
2022-10-12T03:44:36.513Z,7.79
2022-10-12T03:47:05.003Z,7.68
2022-10-12T03:49:33.382Z,7.71
2022-10-12T03:52:01.807Z,7.69
2022-10-12T03:54:30.647Z,7.73
2022-10-12T03:57:01.726Z,7.75
2022-10-12T03:59:29.988Z,7.76
2022-10-12T04:01:58.204Z,7.75
2022-10-12T04:04:26.479Z,7.78
2022-10-12T04:06:55.065Z,7.74
2022-10-12T04:09:23.352Z,7.68
2022-10-12T04:11:52.003Z,7.70
2022-10-12T04:14:21.828Z,7.78
2022-10-12T04:16:50.146Z,7.72
2022-10-12T04:19:18.607Z,7.63
2022-10-12T04:21:50.081Z,7.73
2022-10-12T04:24:18.636Z,7.63
2022-10-12T04:26:46.894Z,7.65
2022-10-12T04:29:15.885Z,7.63
2022-10-12T04:31:45.539Z,7.57
2022-10-12T04:34:40.277Z,7.53
2022-10-12T04:37:08.466Z,7.47
2022-10-12T04:39:36.690Z,7.43
2022-10-12T04:42:06.963Z,7.38
2022-10-12T04:44:35.192Z,7.40
2022-10-12T04:47:05.119Z,7.40
2022-10-12T04:49:33.287Z,7.36
2022-10-12T04:52:01.922Z,7.35
2022-10-12T04:54:30.206Z,7.28
2022-10-12T04:56:58.748Z,7.27
2022-10-12T04:59:27.586Z,7.22
2022-10-12T05:01:56.027Z,7.17
2022-10-12T05:04:26.637Z,7.20
2022-10-12T05:06:55.247Z,7.22
2022-10-12T05:09:23.972Z,7.25
2022-10-12T05:11:52.424Z,7.36
2022-10-12T05:14:21.184Z,7.45
2022-10-12T05:16:49.923Z,7.56
2022-10-12T05:19:19.024Z,7.64
2022-10-12T05:21:48.654Z,7.69
2022-10-12T05:24:17.105Z,7.76
2022-10-12T05:26:45.407Z,7.88
2022-10-12T05:29:13.791Z,7.91
2022-10-12T05:31:41.958Z,7.97
2022-10-12T05:34:10.597Z,8.02
2022-10-12T05:36:38.778Z,8.13
2022-10-12T05:39:08.500Z,8.11
2022-10-12T05:41:37.285Z,8.19
2022-10-12T05:44:06.137Z,8.22
2022-10-12T05:46:34.511Z,8.23
2022-10-12T05:49:03.438Z,8.23
2022-10-12T05:51:31.623Z,8.32
2022-10-12T05:54:00.373Z,8.38
2022-10-12T05:56:30.123Z,8.40
2022-10-12T05:58:58.410Z,8.35
2022-10-12T06:01:26.814Z,8.30
2022-10-12T06:03:55.756Z,8.37
2022-10-12T06:06:24.496Z,8.42
2022-10-12T06:08:52.782Z,8.63
2022-10-12T06:11:21.456Z,8.65
2022-10-12T06:13:51.697Z,8.59
2022-10-12T06:16:19.927Z,8.60
2022-10-12T06:18:48.234Z,8.69
2022-10-12T06:24:05.190Z,8.81
2022-10-12T06:26:33.852Z,8.92
2022-10-12T06:29:03.438Z,8.93
2022-10-12T06:31:32.540Z,8.93
2022-10-12T06:34:01.260Z,8.95
2022-10-12T06:36:29.936Z,9.04
2022-10-12T06:38:58.129Z,9.09
2022-10-12T06:41:26.835Z,9.18
2022-10-12T06:43:55.473Z,9.33
2022-10-12T06:46:25.516Z,9.37
2022-10-12T06:48:53.773Z,9.40
2022-10-12T06:51:22.419Z,9.43
2022-10-12T06:53:50.861Z,9.48
2022-10-12T06:56:19.348Z,9.57
2022-10-12T06:58:47.757Z,9.71
2022-10-12T07:01:16.986Z,9.78
2022-10-12T07:03:46.670Z,9.81
2022-10-12T07:06:16.481Z,9.71
2022-10-12T07:08:45.342Z,9.83
2022-10-12T07:11:15.115Z,9.70
2022-10-12T07:13:43.672Z,9.74
2022-10-12T07:16:11.761Z,9.81
2022-10-12T07:18:40.308Z,9.90
2022-10-12T07:21:09.993Z,9.96
2022-10-12T07:23:43.744Z,10.07
2022-10-12T07:26:14.949Z,10.13
2022-10-12T07:28:43.426Z,10.17
2022-10-12T07:31:12.417Z,10.31
2022-10-12T07:33:40.917Z,10.40
2022-10-12T07:36:17.321Z,10.41
2022-10-12T07:38:49.501Z,10.43
2022-10-12T07:41:18.128Z,10.50
2022-10-12T07:43:46.481Z,10.49
2022-10-12T07:46:15.183Z,10.44
2022-10-12T07:48:48.882Z,10.48
2022-10-12T07:51:20.617Z,10.74
2022-10-12T07:53:49.044Z,10.84
2022-10-12T07:56:17.884Z,10.97
2022-10-12T07:58:50.716Z,11.05
2022-10-12T08:01:19.906Z,11.14
2022-10-12T08:03:48.422Z,10.87
2022-10-12T08:06:18.655Z,10.69
2022-10-12T08:08:49.587Z,10.59
2022-10-12T08:11:19.044Z,10.51
2022-10-12T08:13:47.987Z,10.49
2022-10-12T08:16:19.598Z,10.56
2022-10-12T08:18:48.223Z,10.56
2022-10-12T08:21:18.120Z,10.60
2022-10-12T08:23:48.835Z,10.72
2022-10-12T08:26:17.630Z,10.75
2022-10-12T08:28:45.996Z,10.81
2022-10-12T08:31:16.602Z,10.92
2022-10-12T08:33:45.298Z,11.06
2022-10-12T08:36:14.513Z,11.21
2022-10-12T08:38:43.995Z,11.32
2022-10-12T08:41:25.123Z,11.49
2022-10-12T08:44:03.790Z,11.40
2022-10-12T08:46:32.445Z,11.37
2022-10-12T08:49:06.295Z,11.49
2022-10-12T08:51:45.619Z,11.58
2022-10-12T08:54:16.563Z,11.70
2022-10-12T08:56:47.218Z,11.77
2022-10-12T08:59:18.412Z,11.81
2022-10-12T09:02:01.128Z,11.89
2022-10-12T09:04:46.275Z,11.94
2022-10-12T09:07:19.105Z,11.95
2022-10-12T09:10:01.621Z,12.12
2022-10-12T09:12:51.983Z,12.13
2022-10-12T09:15:24.376Z,12.15
2022-10-12T09:17:57.329Z,12.17
2022-10-12T09:20:30.935Z,12.36
2022-10-12T09:23:04.649Z,12.34
2022-10-12T09:25:33.054Z,12.33
2022-10-12T09:28:17.949Z,12.45
2022-10-12T09:31:03.760Z,12.60
2022-10-12T09:33:39.182Z,12.64
2022-10-12T09:36:08.363Z,12.75
2022-10-12T09:38:38.342Z,12.80
2022-10-12T09:41:07.166Z,12.82
2022-10-12T09:43:37.050Z,12.93
2022-10-12T09:46:11.753Z,13.06
2022-10-12T09:48:57.949Z,13.12
2022-10-12T09:51:26.268Z,13.12
2022-10-12T09:53:57.806Z,13.11
2022-10-12T09:56:30.613Z,13.07
2022-10-12T09:59:03.453Z,13.10
2022-10-12T10:01:34.371Z,13.19
2022-10-12T10:04:12.450Z,13.22
2022-10-12T10:06:42.690Z,13.42
2022-10-12T10:09:29.543Z,13.48
2022-10-12T10:11:58.575Z,13.60
2022-10-12T10:14:28.351Z,13.73
2022-10-12T10:17:00.110Z,13.67
2022-10-12T10:19:28.843Z,13.64
2022-10-12T10:21:57.476Z,13.66
2022-10-12T10:24:32.271Z,13.76
2022-10-12T10:27:06.758Z,13.67
2022-10-12T10:29:39.320Z,13.87
2022-10-12T10:32:27.139Z,14.07
2022-10-12T10:35:08.111Z,14.15
2022-10-12T10:37:37.328Z,14.25
2022-10-12T10:40:07.038Z,14.49
2022-10-12T10:42:36.290Z,14.71
2022-10-12T10:45:09.140Z,14.78
2022-10-12T10:47:47.136Z,14.95
2022-10-12T10:50:27.892Z,14.88
2022-10-12T10:52:58.629Z,14.87
2022-10-12T10:55:33.482Z,14.78
2022-10-12T10:58:06.261Z,14.69
2022-10-12T11:00:40.570Z,14.71
2022-10-12T11:03:16.071Z,14.73
2022-10-12T11:05:49.707Z,14.81
2022-10-12T11:08:22.497Z,14.94
2022-10-12T11:10:54.861Z,15.05
2022-10-12T11:13:27.129Z,15.14
2022-10-12T11:16:01.672Z,15.28
2022-10-12T11:18:43.713Z,15.41
2022-10-12T11:21:17.293Z,15.57
2022-10-12T11:23:52.194Z,15.24
2022-10-12T11:26:27.842Z,15.45
2022-10-12T11:29:00.012Z,15.82
2022-10-12T11:31:34.327Z,16.05
2022-10-12T11:34:10.013Z,16.10
2022-10-12T11:37:01.081Z,15.98
2022-10-12T11:39:36.065Z,15.43
2022-10-12T11:42:21.271Z,15.66
2022-10-12T11:44:51.305Z,15.81
2022-10-12T11:47:36.571Z,16.00
2022-10-12T11:50:08.944Z,15.71
2022-10-12T11:52:41.279Z,15.86
2022-10-12T11:55:30.028Z,15.83
2022-10-12T11:58:13.316Z,15.71
2022-10-12T12:01:07.595Z,15.82
2022-10-12T12:04:22.657Z,15.87
2022-10-12T12:06:58.814Z,15.92
2022-10-12T12:09:37.934Z,16.13
2022-10-12T12:12:25.045Z,16.13
2022-10-12T12:15:25.725Z,16.04
2022-10-12T12:18:12.029Z,15.74
2022-10-12T12:21:04.910Z,15.55
2022-10-12T12:23:39.797Z,15.48
2022-10-12T12:26:17.321Z,15.45
2022-10-12T12:28:48.358Z,15.19
2022-10-12T12:31:26.405Z,15.15
2022-10-12T12:34:05.831Z,15.19
2022-10-12T12:36:38.242Z,15.09
2022-10-12T12:39:09.907Z,15.01
2022-10-12T12:41:57.667Z,14.83
2022-10-12T12:44:40.655Z,14.92
2022-10-12T12:50:35.541Z,15.35
2022-10-12T12:53:09.867Z,15.43
2022-10-12T12:55:50.736Z,15.71
2022-10-12T12:58:38.145Z,15.88
2022-10-12T13:01:22.435Z,16.13
2022-10-12T13:04:03.092Z,16.37
2022-10-12T13:07:03.675Z,16.37
2022-10-12T13:09:44.845Z,16.21
2022-10-12T13:12:26.676Z,16.21
2022-10-12T13:15:19.279Z,16.32
2022-10-12T13:18:03.468Z,16.20
2022-10-12T13:20:35.895Z,16.07
2022-10-12T13:23:10.352Z,16.03
2022-10-12T13:25:45.460Z,15.86
2022-10-12T13:28:17.003Z,15.93
2022-10-12T13:30:52.939Z,15.96
2022-10-12T13:33:32.293Z,15.94
2022-10-12T13:36:06.732Z,15.88
2022-10-12T13:38:36.023Z,15.76
2022-10-12T13:41:10.288Z,15.63
2022-10-12T13:43:46.289Z,15.40
2022-10-12T13:46:17.917Z,15.33
2022-10-12T13:49:05.944Z,15.32
2022-10-12T13:51:36.277Z,15.35
2022-10-12T13:54:16.011Z,15.41
2022-10-12T13:56:47.248Z,15.53
2022-10-12T13:59:19.887Z,15.70
2022-10-12T14:01:54.048Z,15.72
2022-10-12T14:04:22.656Z,15.63
2022-10-12T14:06:59.021Z,15.63
2022-10-12T14:09:29.944Z,15.73
2022-10-12T14:11:59.972Z,15.81
2022-10-12T14:14:33.985Z,15.81
2022-10-12T14:17:02.367Z,15.79
2022-10-12T14:19:37.095Z,15.78
2022-10-12T14:22:05.845Z,15.75
2022-10-12T14:24:36.383Z,15.70
2022-10-12T14:27:08.075Z,15.71
2022-10-12T14:29:43.319Z,15.78
2022-10-12T14:32:44.247Z,15.89
2022-10-12T14:35:23.004Z,15.81
2022-10-12T14:37:54.198Z,15.53
2022-10-12T14:40:38.945Z,15.70
2022-10-12T14:43:24.541Z,15.66
2022-10-12T14:45:53.424Z,15.48
2022-10-12T14:48:23.748Z,15.36
2022-10-12T14:50:52.943Z,15.41
2022-10-12T14:53:22.886Z,15.38
2022-10-12T14:55:54.506Z,15.35
2022-10-12T14:58:24.765Z,15.45
2022-10-12T15:00:53.608Z,15.45
2022-10-12T15:03:22.442Z,15.27
2022-10-12T15:05:50.941Z,15.18
2022-10-12T15:08:19.791Z,15.15
2022-10-12T15:10:52.624Z,15.04
2022-10-12T15:13:21.597Z,15.03
2022-10-12T15:15:52.660Z,15.00
2022-10-12T15:18:21.239Z,14.93
2022-10-12T15:20:50.070Z,14.89
2022-10-12T15:23:18.747Z,14.83
2022-10-12T15:25:52.006Z,14.71
2022-10-12T15:28:21.274Z,14.63
2022-10-12T15:31:16.412Z,14.52
2022-10-12T15:33:40.613Z,14.40
2022-10-12T15:36:10.225Z,14.39
2022-10-12T15:38:39.148Z,14.34
2022-10-12T15:41:08.063Z,14.27
2022-10-12T15:43:38.274Z,14.25
2022-10-12T15:46:13.293Z,14.09
2022-10-12T15:48:41.984Z,14.04
2022-10-12T15:51:18.427Z,13.91
2022-10-12T15:53:46.927Z,13.73
2022-10-12T15:56:16.832Z,13.71
2022-10-12T15:58:46.040Z,13.60
2022-10-12T16:01:17.570Z,13.47
2022-10-12T16:03:46.491Z,13.39
2022-10-12T16:06:15.310Z,13.30
2022-10-12T16:08:45.206Z,13.19
2022-10-12T16:11:18.596Z,13.14
2022-10-12T16:13:53.880Z,13.02
2022-10-12T16:16:27.750Z,13.00
2022-10-12T16:18:56.568Z,12.92
2022-10-12T16:21:25.125Z,12.91
2022-10-12T16:23:53.868Z,12.84
2022-10-12T16:26:22.299Z,12.80
2022-10-12T16:28:50.648Z,12.71
2022-10-12T16:31:18.971Z,12.70
2022-10-12T16:33:48.678Z,12.62
2022-10-12T16:36:18.748Z,12.48
2022-10-12T16:38:50.544Z,12.46
2022-10-12T16:41:19.756Z,12.44
2022-10-12T16:43:48.141Z,12.40
2022-10-12T16:46:16.726Z,12.36
2022-10-12T16:48:45.621Z,12.33
2022-10-12T16:51:15.643Z,12.30
2022-10-12T16:53:44.022Z,12.19
2022-10-12T16:56:12.466Z,12.17
2022-10-12T16:58:40.718Z,12.13
2022-10-12T17:01:10.930Z,12.07
2022-10-12T17:03:39.237Z,12.04
2022-10-12T17:06:08.201Z,12.01
2022-10-12T17:08:39.523Z,11.95
2022-10-12T17:11:09.389Z,12.04
2022-10-12T17:13:38.983Z,11.95
2022-10-12T17:16:35.253Z,11.92
2022-10-12T17:19:04.777Z,11.86
2022-10-12T17:21:34.013Z,11.79
2022-10-12T17:24:03.862Z,11.75
2022-10-12T17:26:32.167Z,11.67
2022-10-12T17:29:00.485Z,11.61
2022-10-12T17:31:29.362Z,11.56
2022-10-12T17:33:58.892Z,11.48
2022-10-12T17:36:28.550Z,11.47
2022-10-12T17:38:59.854Z,11.43
2022-10-12T17:41:32.904Z,11.39
2022-10-12T17:44:02.876Z,11.39
2022-10-12T17:46:32.578Z,11.40
2022-10-12T17:49:03.116Z,11.39
2022-10-12T17:51:32.984Z,11.38
2022-10-12T17:54:02.224Z,11.32
2022-10-12T17:56:32.458Z,11.33
2022-10-12T17:59:02.684Z,11.30
2022-10-12T18:01:33.934Z,11.31
2022-10-12T18:04:03.452Z,11.28
2022-10-12T18:06:33.478Z,11.20
2022-10-12T18:09:04.450Z,11.20
2022-10-12T18:11:35.352Z,11.22
2022-10-12T18:14:04.701Z,11.20
2022-10-12T18:16:36.208Z,11.12
2022-10-12T18:19:07.823Z,11.06
2022-10-12T18:21:37.335Z,11.04
2022-10-12T18:24:11.208Z,11.03
2022-10-12T18:26:48.384Z,10.97
2022-10-12T18:29:18.351Z,11.04
2022-10-12T18:31:51.057Z,11.04
2022-10-12T18:34:20.804Z,10.94
2022-10-12T18:36:49.469Z,10.82
2022-10-12T18:39:18.261Z,10.69
2022-10-12T18:41:53.927Z,10.58
2022-10-12T18:44:23.232Z,10.50
2022-10-12T18:46:53.657Z,10.43
2022-10-12T18:49:22.259Z,10.35
2022-10-12T18:51:52.630Z,10.28
2022-10-12T18:54:21.256Z,10.28
2022-10-12T18:56:52.924Z,10.34
2022-10-12T18:59:22.832Z,10.32
2022-10-12T19:01:51.890Z,10.26
2022-10-12T19:04:21.954Z,10.24
2022-10-12T19:06:55.566Z,10.22
2022-10-12T19:09:26.627Z,10.23
2022-10-12T19:11:59.990Z,10.43
2022-10-12T19:14:29.090Z,10.47
2022-10-12T19:16:58.322Z,10.48
2022-10-12T19:19:29.859Z,10.46
2022-10-12T19:22:04.422Z,10.46
2022-10-12T19:24:34.216Z,10.33
2022-10-12T19:27:04.823Z,10.40
2022-10-12T19:29:37.045Z,10.34
2022-10-12T19:32:05.993Z,10.32
2022-10-12T19:34:35.195Z,10.31
2022-10-12T19:37:04.107Z,10.29
2022-10-12T19:39:33.731Z,10.24
2022-10-12T19:42:04.346Z,10.20
2022-10-12T19:44:33.426Z,10.18
2022-10-12T19:47:03.915Z,10.08
2022-10-12T19:49:37.258Z,10.17
2022-10-12T19:52:14.026Z,10.18
2022-10-12T19:54:43.359Z,10.29
2022-10-12T19:57:16.083Z,10.24
2022-10-12T19:59:45.032Z,10.14
2022-10-12T20:02:15.545Z,10.12
2022-10-12T20:04:46.626Z,10.13
2022-10-12T20:07:16.938Z,10.06
2022-10-12T20:09:45.825Z,9.98
2022-10-12T20:12:19.502Z,9.99
2022-10-12T20:14:49.546Z,9.96
2022-10-12T20:17:18.344Z,9.93
2022-10-12T20:19:47.180Z,10.00
2022-10-12T20:22:17.130Z,9.99
2022-10-12T20:24:45.879Z,10.03
2022-10-12T20:27:15.882Z,10.03
2022-10-12T20:29:44.625Z,10.07
2022-10-12T20:32:17.198Z,10.12
2022-10-12T20:34:46.043Z,10.21
2022-10-12T20:37:18.518Z,10.26
2022-10-12T20:39:50.956Z,10.32
2022-10-12T20:42:23.163Z,10.32
2022-10-12T20:44:52.177Z,10.34
2022-10-12T20:47:20.685Z,10.43
2022-10-12T20:49:49.442Z,10.45
2022-10-12T20:52:18.700Z,10.49
2022-10-12T20:54:47.701Z,10.55
2022-10-12T20:57:16.495Z,10.57
2022-10-12T20:59:49.308Z,10.59
2022-10-12T21:02:18.129Z,10.59
2022-10-12T21:04:46.712Z,10.71
2022-10-12T21:07:15.196Z,10.77
2022-10-12T21:09:44.015Z,10.80
2022-10-12T21:12:13.009Z,10.76
2022-10-12T21:14:41.475Z,10.87
2022-10-12T21:17:12.092Z,10.88
2022-10-12T21:19:40.336Z,10.90
2022-10-12T21:22:10.081Z,10.94
2022-10-12T21:24:38.482Z,10.95
2022-10-12T21:27:06.971Z,10.95
2022-10-12T21:29:38.840Z,10.83
2022-10-12T21:32:08.830Z,10.83
2022-10-12T21:34:39.330Z,10.70
2022-10-12T21:37:07.689Z,10.62
2022-10-12T21:39:36.543Z,10.50
2022-10-12T21:42:05.356Z,10.35
2022-10-12T21:44:33.888Z,10.22
2022-10-12T21:47:02.331Z,10.10
2022-10-12T21:49:30.708Z,10.05
2022-10-12T21:52:00.723Z,9.97
2022-10-12T21:54:29.937Z,9.92
2022-10-12T21:56:58.725Z,9.84
2022-10-12T21:59:27.505Z,9.79
2022-10-12T22:01:55.546Z,9.72
2022-10-12T22:04:24.207Z,9.65
2022-10-12T22:06:55.118Z,9.58
2022-10-12T22:09:28.139Z,9.54
2022-10-12T22:11:57.645Z,9.46
2022-10-12T22:14:28.973Z,9.48
2022-10-12T22:16:57.589Z,9.42
2022-10-12T22:19:26.035Z,9.46
2022-10-12T22:21:54.926Z,9.48
2022-10-12T22:24:23.585Z,9.52
2022-10-12T22:26:53.440Z,9.52
2022-10-12T22:29:21.994Z,9.43
2022-10-12T22:31:50.469Z,9.40
2022-10-12T22:34:18.768Z,9.34
2022-10-12T22:36:47.106Z,9.37
2022-10-12T22:39:16.176Z,9.33
2022-10-12T22:41:45.953Z,9.31
2022-10-12T22:44:15.698Z,9.34
2022-10-12T22:46:44.146Z,9.25
2022-10-12T22:49:12.688Z,9.26
2022-10-12T22:51:41.379Z,9.22
2022-10-12T22:54:11.157Z,9.21
2022-10-12T22:56:39.625Z,9.14
2022-10-12T22:59:08.312Z,9.08
2022-10-12T23:01:39.102Z,9.06
2022-10-12T23:04:07.335Z,9.06
2022-10-12T23:06:35.773Z,9.05
2022-10-12T23:09:05.539Z,9.07
2022-10-12T23:11:35.594Z,9.04
2022-10-12T23:14:05.183Z,8.92
2022-10-12T23:16:34.270Z,8.94
2022-10-12T23:19:06.800Z,8.89
2022-10-12T23:21:36.250Z,8.84
2022-10-12T23:24:06.541Z,8.76
2022-10-12T23:26:35.885Z,8.70
2022-10-12T23:29:05.248Z,8.63
2022-10-12T23:31:35.789Z,8.59
2022-10-12T23:34:07.524Z,8.52
2022-10-12T23:36:36.450Z,8.52
2022-10-12T23:39:07.187Z,8.53
2022-10-12T23:41:35.480Z,8.53
2022-10-12T23:44:03.751Z,8.41
2022-10-12T23:46:32.223Z,8.43
2022-10-12T23:49:01.654Z,8.41
2022-10-12T23:51:31.287Z,8.37
2022-10-12T23:53:59.407Z,8.33
2022-10-12T23:56:29.055Z,8.38
2022-10-12T23:58:59.165Z,8.30
